UNIFLY Flight Plan

Who is Online Now?

Pilot VA/Community Aircraft Flight DTG (NM) Flight Plan
VXL109-Tom / EXS766 Airbus A330-200 Madeira/Funchal - Cristiano Ronaldo | FNC - MAN | Manchester 59 NM Plan
VXL007-Adam / RUK2801 Boeing 737-800 Billund | BLL - MAN | Manchester 10 NM Plan
Carman / QFA0395 T144 Baku Heydar Aliyev Intl | GYD - FNC | Madeira/Funchal - Cristiano Ronaldo 2746 NM Plan
VXL575 Ossian / G-MMAL P28R NO FLIGHT PLAN NOFLP Plan



This flight plan is only for information to UniFly and Simulator's and should NOT be used for real flight plans.

Flight Plan for: VXL109-Tom on Virgin XL

This flight plan consits of airport data within the last 3 hours.

Current Flight Information

Origin Destination Alternative Aircraft
LPMA(FNC) | Madeira/Funchal - Cristiano Ronaldo EGCC(MAN) | Manchester EGLL(LHR) | London Heathrow Airbus A330-243 RR Jet2 (G-VYGL)(A332) | EXS

Route: DEGU1E DEGUN DCT PECKY DCT PETEK DCT BERUX DCT LASNO DCT EMPER DCT MAPAG DCT BOFUM Q37 MALUD MALU1M


Cruise Information

Maxium Cruise Speed:

Maxium Cruise Altitude:

Current Position

Latitude: 53.480245685571

Longitude: -3.9275803774363

Heading: 103

Current Speed: 404

Altitude Above Sea: 16452

Altitude Above Ground: 16452

Airport Information for: LPMA

Name: Madeira/Funchal - Cristiano Ronaldo

IATA: FNC

Metar: LPMA 151030Z 06008KT CAVOK 20/15 Q1020

Taf: TAF LPMA 150500Z 1506/1606 VRB05KT 9999 FEW015 BECMG 1507/1510 04012KT

Airport Information for: EGCC

Name: Manchester

IATA: MAN

Metar: EGCC 141920Z AUTO 22009KT 9999 NCD 09/03 Q1015 NOSIG

Taf: TAF EGCC 141658Z 1418/1524 24012KT 9999 FEW030 PROB30 TEMPO 1418/1423 8000 -SHRA TEMPO 1423/1510 7000 SHRA PROB30 TEMPO 1423/1502 22015G25KT PROB40 TEMPO 1500/1519 3000 +SHRA BKN014 BKN020CB BECMG 1502/1505 25018G28KT BECMG 1505/1508 28020G35KT PROB30 TEMPO 1516/1520 29030G45KT PROB30 TEMPO 1519/1522 7000 SHRA

Airport Information for: EGLL

Name: London Heathrow

IATA: LHR

Metar: EGLL 151350Z AUTO 28022G35KT 9999 NCD 12/00 Q1007 NOSIG

Taf: TAF EGLL 151100Z 1512/1618 28018G28KT 9999 SCT040 TEMPO 1512/1519 6000 SHRA PROB40 TEMPO 1512/1518 29025G40KT 4000 +SHRA PROB30 TEMPO 1522/1606 6000 SHRA PROB30 TEMPO 1610/1617 7000 SHRA BECMG 1612/1615 32012KT

Current World Location Map